Time;durP1;ratioP1;P1;durP2;ratioP2;P2;SDS_P1;SDS_P2;PMS_P1;PMS_P2;Temp;Humidity;BMP_temperature;BMP_pressure;BME280_temperature;BME280_humidity;BME280_pressure;Samples;Min_cycle;Max_cycle;Signal;HPM_P1;HPM_P2
2022/09/09 00:01:43;;;;;;;9.70;5.53;;;14.50;99.90;;;;;;4986150;28;20509;-73
2022/09/09 00:04:32;;;;;;;14.73;4.75;;;14.50;99.90;;;;;;4983898;28;20074;-73
2022/09/09 00:07:10;;;;;;;26.55;5.22;;;14.40;99.90;;;;;;4984036;28;20030;-74
2022/09/09 00:09:57;;;;;;;11.55;5.00;;;14.40;99.90;;;;;;4985707;28;20347;-74
2022/09/09 00:12:33;;;;;;;7.38;4.80;;;14.40;99.90;;;;;;4986173;28;20057;-74
2022/09/09 00:15:07;;;;;;;10.02;5.40;;;14.40;99.90;;;;;;4986662;28;20101;-74
2022/09/09 00:17:56;;;;;;;8.88;5.40;;;14.30;99.90;;;;;;5002301;28;20034;-74
2022/09/09 00:21:02;;;;;;;10.45;5.55;;;14.30;99.90;;;;;;4999547;28;20042;-74
2022/09/09 00:23:37;;;;;;;8.43;5.47;;;14.30;99.90;;;;;;4983302;28;20116;-74
2022/09/09 00:26:20;;;;;;;9.40;5.85;;;14.30;99.90;;;;;;4986502;28;20486;-74
2022/09/09 00:29:09;;;;;;;8.38;4.35;;;14.30;99.90;;;;;;4982205;28;20096;-74
2022/09/09 00:31:37;;;;;;;9.85;5.38;;;14.30;99.90;;;;;;4981037;28;20066;-74
2022/09/09 00:34:13;;;;;;;7.55;4.22;;;14.20;99.90;;;;;;4982746;28;20107;-74
2022/09/09 00:36:41;;;;;;;8.48;5.50;;;14.30;99.90;;;;;;4973583;28;20116;-74
2022/09/09 00:39:17;;;;;;;13.77;5.85;;;14.20;99.90;;;;;;4985404;28;20054;-74
2022/09/09 00:42:01;;;;;;;10.50;5.82;;;14.20;99.90;;;;;;4985727;28;20042;-75
2022/09/09 00:44:35;;;;;;;8.48;5.47;;;14.20;99.90;;;;;;4987608;28;20053;-74
2022/09/09 00:47:25;;;;;;;7.63;5.10;;;14.20;99.90;;;;;;5004495;28;20046;-74
2022/09/09 00:50:10;;;;;;;9.80;5.55;;;14.20;99.90;;;;;;4990496;28;20097;-74
2022/09/09 00:52:58;;;;;;;8.02;5.95;;;14.20;99.90;;;;;;4988922;28;20046;-74
2022/09/09 00:55:51;;;;;;;7.28;5.90;;;14.20;99.90;;;;;;4989351;28;20100;-74
2022/09/09 00:58:16;;;;;;;10.13;5.97;;;14.20;99.90;;;;;;4992700;28;20141;-75
2022/09/09 01:00:42;;;;;;;9.02;5.90;;;14.30;99.90;;;;;;4993801;28;20133;-75
2022/09/09 01:03:23;;;;;;;10.32;6.00;;;14.30;99.90;;;;;;4990374;28;20061;-74
2022/09/09 01:06:24;;;;;;;10.02;6.40;;;14.30;99.90;;;;;;5004788;28;20086;-74
2022/09/09 01:09:05;;;;;;;17.40;7.32;;;14.40;99.90;;;;;;4988385;28;20074;-74
2022/09/09 01:11:45;;;;;;;11.30;7.32;;;14.40;99.90;;;;;;4987458;28;20046;-74
2022/09/09 01:14:39;;;;;;;15.77;8.07;;;14.40;99.90;;;;;;4989126;28;20041;-74
2022/09/09 01:17:15;;;;;;;18.17;7.70;;;14.40;99.90;;;;;;4992668;28;20046;-74
2022/09/09 01:19:43;;;;;;;17.05;7.55;;;14.50;99.90;;;;;;4989499;28;20042;-73
2022/09/09 01:22:14;;;;;;;14.23;8.77;;;14.50;99.90;;;;;;4988507;28;20038;-74
2022/09/09 01:24:50;;;;;;;15.52;8.15;;;14.50;99.90;;;;;;4988911;28;20038;-72
2022/09/09 01:27:17;;;;;;;10.80;7.72;;;14.60;99.90;;;;;;5005176;28;20057;-74
2022/09/09 01:29:43;;;;;;;12.60;7.47;;;14.70;99.90;;;;;;4989167;28;20046;-74
2022/09/09 01:32:48;;;;;;;14.02;8.13;;;14.70;99.90;;;;;;4989325;28;20038;-74
2022/09/09 01:35:34;;;;;;;17.55;8.60;;;14.80;99.90;;;;;;5004058;28;20066;-75
2022/09/09 01:37:59;;;;;;;22.65;8.77;;;14.80;99.90;;;;;;4988114;28;20043;-74
2022/09/09 01:40:26;;;;;;;19.50;8.70;;;14.80;99.90;;;;;;4990701;28;20053;-74
2022/09/09 01:42:52;;;;;;;26.15;8.50;;;14.80;99.90;;;;;;4991988;28;20406;-75
2022/09/09 01:45:19;;;;;;;21.30;7.78;;;14.90;99.90;;;;;;4992661;28;20048;-75
2022/09/09 01:47:45;;;;;;;13.23;6.78;;;14.90;99.90;;;;;;4988382;28;20069;-75
2022/09/09 01:50:14;;;;;;;16.85;7.28;;;14.90;99.90;;;;;;4990128;28;20046;-75
2022/09/09 01:52:41;;;;;;;14.25;6.30;;;14.90;99.90;;;;;;4990569;28;20042;-75
2022/09/09 01:55:08;;;;;;;13.85;6.43;;;14.90;99.90;;;;;;5005138;28;20463;-74
2022/09/09 01:57:55;;;;;;;10.80;6.75;;;14.90;99.90;;;;;;4989230;28;20380;-74
2022/09/09 02:00:21;;;;;;;13.48;7.03;;;15.00;99.90;;;;;;4970424;28;20042;-74
2022/09/09 02:03:08;;;;;;;12.75;6.53;;;15.00;99.90;;;;;;4989046;28;20045;-74
2022/09/09 02:05:45;;;;;;;10.88;5.88;;;15.00;99.90;;;;;;5003732;28;20053;-74
2022/09/09 02:08:21;;;;;;;13.57;6.80;;;15.00;99.90;;;;;;4986922;28;20127;-74
2022/09/09 02:11:01;;;;;;;14.63;6.68;;;15.00;99.90;;;;;;4987542;28;20038;-74
2022/09/09 02:13:29;;;;;;;11.57;6.35;;;15.00;99.90;;;;;;4986833;28;20045;-73
2022/09/09 02:16:21;;;;;;;13.38;6.28;;;15.00;99.90;;;;;;4984822;28;20133;-74
2022/09/09 02:18:50;;;;;;;8.98;6.35;;;15.00;99.90;;;;;;4966963;28;20526;-73
2022/09/09 02:21:17;;;;;;;11.52;5.43;;;15.00;99.90;;;;;;4985707;28;20045;-73
2022/09/09 02:23:46;;;;;;;11.88;6.03;;;15.00;99.90;;;;;;4983352;28;20058;-74
2022/09/09 02:26:19;;;;;;;14.05;5.47;;;15.10;99.90;;;;;;4988777;28;20412;-74
2022/09/09 02:28:46;;;;;;;12.93;6.07;;;15.10;99.90;;;;;;4991565;28;20105;-74
2022/09/09 02:31:15;;;;;;;12.43;6.72;;;15.10;99.90;;;;;;4985776;28;20122;-75
2022/09/09 02:33:45;;;;;;;11.10;7.00;;;15.10;99.90;;;;;;5002395;28;20050;-75
2022/09/09 02:36:16;;;;;;;17.67;7.07;;;15.10;99.90;;;;;;5003095;28;20038;-74
2022/09/09 02:38:50;;;;;;;12.85;6.85;;;15.10;99.90;;;;;;4986628;28;20034;-74
2022/09/09 02:41:25;;;;;;;16.52;7.80;;;15.10;99.90;;;;;;4987490;28;20050;-74
2022/09/09 02:43:50;;;;;;;17.88;8.07;;;15.10;99.90;;;;;;4985695;28;20872;-74
2022/09/09 02:46:47;;;;;;;12.30;7.10;;;15.20;99.90;;;;;;4993697;28;20042;-74
2022/09/09 02:49:20;;;;;;;14.48;7.20;;;15.20;99.90;;;;;;4989745;28;20046;-75
2022/09/09 02:52:00;;;;;;;17.48;7.50;;;15.20;99.90;;;;;;4987866;28;20090;-74
2022/09/09 02:54:31;;;;;;;17.90;7.90;;;15.20;99.90;;;;;;4985818;28;20612;-75
2022/09/09 02:57:11;;;;;;;12.90;6.75;;;15.20;99.90;;;;;;4986207;28;20121;-75
2022/09/09 02:59:37;;;;;;;13.73;6.70;;;15.10;99.90;;;;;;4994216;28;20038;-75
2022/09/09 03:02:03;;;;;;;12.07;6.80;;;15.10;99.90;;;;;;4991325;28;20384;-75
2022/09/09 03:04:30;;;;;;;12.60;6.47;;;15.10;99.90;;;;;;4989570;28;20064;-74
2022/09/09 03:06:58;;;;;;;13.45;6.95;;;15.10;99.90;;;;;;4991523;28;20035;-74
2022/09/09 03:09:23;;;;;;;14.65;6.25;;;15.10;99.90;;;;;;4985705;28;20030;-74
2022/09/09 03:11:49;;;;;;;9.70;6.53;;;15.10;99.90;;;;;;4987242;28;20540;-75
2022/09/09 03:14:16;;;;;;;7.65;6.10;;;15.10;99.90;;;;;;4984020;28;20042;-74
2022/09/09 03:16:42;;;;;;;9.77;6.07;;;15.10;99.90;;;;;;4986188;28;20129;-74
2022/09/09 03:19:09;;;;;;;10.57;6.65;;;15.10;99.90;;;;;;4986223;28;20046;-73
2022/09/09 03:21:35;;;;;;;10.57;6.30;;;15.10;99.90;;;;;;4983959;28;20038;-73
2022/09/09 03:24:03;;;;;;;10.32;7.13;;;15.10;99.90;;;;;;5000780;28;20042;-74
2022/09/09 03:26:30;;;;;;;12.32;7.05;;;15.10;99.90;;;;;;4988597;28;20124;-74
2022/09/09 03:28:56;;;;;;;10.65;7.00;;;15.10;99.90;;;;;;4986353;28;20137;-74
2022/09/09 03:31:21;;;;;;;10.32;7.32;;;15.10;99.90;;;;;;4985486;28;20042;-74
2022/09/09 03:33:47;;;;;;;13.23;7.95;;;15.00;99.90;;;;;;4985686;28;20096;-74
2022/09/09 03:36:14;;;;;;;16.90;8.57;;;15.00;99.90;;;;;;4986085;28;20034;-74
2022/09/09 03:38:39;;;;;;;15.25;8.82;;;15.00;99.90;;;;;;4990084;28;20038;-74
2022/09/09 03:41:05;;;;;;;14.02;9.30;;;15.00;99.90;;;;;;4987403;28;20038;-73
2022/09/09 03:43:31;;;;;;;15.93;8.55;;;15.00;99.90;;;;;;4986531;28;20050;-73
2022/09/09 03:45:57;;;;;;;14.52;9.02;;;15.00;99.90;;;;;;4986725;28;20092;-74
2022/09/09 03:48:24;;;;;;;16.27;9.45;;;15.00;99.90;;;;;;4988082;28;20079;-74
2022/09/09 03:50:52;;;;;;;10.80;8.43;;;15.00;99.90;;;;;;4991290;28;20050;-75
2022/09/09 03:53:20;;;;;;;14.55;8.70;;;15.10;99.90;;;;;;4990797;28;20046;-75
2022/09/09 03:55:48;;;;;;;13.95;8.50;;;15.10;99.90;;;;;;4989163;28;20049;-75
2022/09/09 03:58:15;;;;;;;12.43;8.15;;;15.10;99.90;;;;;;4989564;28;20122;-75
2022/09/09 04:00:42;;;;;;;10.27;7.90;;;15.00;99.90;;;;;;4985367;28;20038;-74
2022/09/09 04:03:11;;;;;;;13.90;8.35;;;15.00;99.90;;;;;;4986355;28;20125;-73
2022/09/09 04:05:41;;;;;;;15.10;9.02;;;15.00;99.90;;;;;;4984144;28;20184;-74
2022/09/09 04:08:08;;;;;;;13.80;9.45;;;15.00;99.90;;;;;;4984006;28;20042;-75
2022/09/09 04:10:36;;;;;;;14.98;9.27;;;15.00;99.90;;;;;;4984581;28;20043;-74
2022/09/09 04:13:06;;;;;;;15.57;9.13;;;15.00;99.90;;;;;;4969621;28;20151;-73
2022/09/09 04:15:32;;;;;;;18.63;10.18;;;14.90;99.90;;;;;;4986416;28;20042;-75
2022/09/09 04:17:58;;;;;;;15.25;9.75;;;14.90;99.90;;;;;;4986512;28;20034;-73
2022/09/09 04:20:24;;;;;;;19.13;10.27;;;14.90;99.90;;;;;;4985976;28;20100;-73
2022/09/09 04:22:49;;;;;;;15.32;9.93;;;14.90;99.90;;;;;;4983587;28;20070;-73
2022/09/09 04:25:15;;;;;;;15.95;10.98;;;14.80;99.90;;;;;;4985985;28;20057;-75
2022/09/09 04:27:41;;;;;;;16.38;10.77;;;14.90;99.90;;;;;;4984197;28;20050;-75
2022/09/09 04:30:08;;;;;;;16.88;11.60;;;14.80;99.90;;;;;;4985186;28;20474;-74
2022/09/09 04:32:35;;;;;;;17.42;11.48;;;14.80;99.90;;;;;;4984904;28;20045;-73
2022/09/09 04:35:01;;;;;;;15.65;11.45;;;14.80;99.90;;;;;;4986312;28;20999;-74
2022/09/09 04:37:26;;;;;;;14.57;10.88;;;14.80;99.90;;;;;;4968002;28;20042;-73
2022/09/09 04:39:52;;;;;;;15.23;10.57;;;14.80;99.90;;;;;;4986442;28;20129;-75
2022/09/09 04:42:19;;;;;;;17.17;10.43;;;14.70;99.90;;;;;;4985178;28;20046;-74
2022/09/09 04:44:44;;;;;;;16.95;10.73;;;14.80;99.90;;;;;;4986081;28;20100;-74
2022/09/09 04:47:10;;;;;;;16.20;10.90;;;14.80;99.90;;;;;;4983718;28;20038;-74
2022/09/09 04:49:36;;;;;;;14.07;10.65;;;14.70;99.90;;;;;;4984847;28;20133;-73
2022/09/09 04:52:03;;;;;;;18.15;10.57;;;14.70;99.90;;;;;;4988696;28;20113;-73
2022/09/09 04:54:29;;;;;;;15.70;10.48;;;14.70;99.90;;;;;;4984502;28;20687;-74
2022/09/09 04:56:55;;;;;;;15.93;10.38;;;14.70;99.90;;;;;;4984523;28;20661;-74
2022/09/09 04:59:21;;;;;;;14.23;10.02;;;14.70;99.90;;;;;;4966376;28;20062;-74
2022/09/09 05:01:47;;;;;;;15.45;9.98;;;14.70;99.90;;;;;;4985537;28;20389;-74
2022/09/09 05:04:15;;;;;;;15.00;10.20;;;14.60;99.90;;;;;;4969504;28;20534;-74
2022/09/09 05:06:42;;;;;;;15.65;10.48;;;14.60;99.90;;;;;;4986165;28;21700;-74
2022/09/09 05:09:08;;;;;;;18.25;10.98;;;14.60;99.90;;;;;;5000400;28;20427;-74
2022/09/09 05:11:38;;;;;;;13.30;10.38;;;14.60;99.90;;;;;;4985074;28;20418;-74
2022/09/09 05:14:04;;;;;;;13.23;10.35;;;14.60;99.90;;;;;;4966934;28;20031;-74
2022/09/09 05:16:30;;;;;;;15.85;10.52;;;14.60;99.90;;;;;;4987937;28;20097;-75
2022/09/09 05:18:56;;;;;;;17.38;11.32;;;14.50;99.90;;;;;;4987292;28;20466;-74
2022/09/09 05:21:26;;;;;;;13.18;10.90;;;14.50;99.90;;;;;;4987771;28;20438;-74
2022/09/09 05:23:52;;;;;;;17.23;10.85;;;14.50;99.90;;;;;;4983328;28;20042;-73
2022/09/09 05:26:20;;;;;;;13.95;11.10;;;14.50;99.90;;;;;;4984146;28;20038;-73
2022/09/09 05:28:46;;;;;;;13.20;9.93;;;14.50;99.90;;;;;;4982704;28;20069;-74
2022/09/09 05:31:13;;;;;;;13.65;10.10;;;14.50;99.90;;;;;;4983434;28;20494;-73
2022/09/09 05:33:40;;;;;;;14.95;10.77;;;14.40;99.90;;;;;;4986613;28;20458;-74
2022/09/09 05:36:08;;;;;;;12.60;10.13;;;14.40;99.90;;;;;;4987297;28;20125;-74
2022/09/09 05:38:35;;;;;;;12.57;10.52;;;14.40;99.90;;;;;;4986282;28;20034;-74
2022/09/09 05:41:02;;;;;;;15.57;10.63;;;14.40;99.90;;;;;;4990574;28;20046;-74
2022/09/09 05:43:29;;;;;;;14.77;11.00;;;14.40;99.90;;;;;;4991786;28;20049;-72
2022/09/09 05:46:12;;;;;;;12.30;10.50;;;14.50;99.90;;;;;;4992149;28;20050;-74
2022/09/09 05:48:43;;;;;;;18.30;10.82;;;14.50;99.90;;;;;;4986816;28;20129;-74
2022/09/09 05:51:12;;;;;;;16.30;11.15;;;14.50;99.90;;;;;;4987925;28;20499;-73
2022/09/09 05:53:38;;;;;;;15.77;10.85;;;14.50;99.90;;;;;;4988560;28;20088;-74
2022/09/09 05:56:07;;;;;;;12.95;11.60;;;14.60;99.90;;;;;;4988671;28;20030;-73
2022/09/09 05:58:33;;;;;;;15.55;10.73;;;14.60;99.90;;;;;;4990832;28;20045;-74
2022/09/09 06:01:08;;;;;;;17.55;10.30;;;14.60;99.90;;;;;;4990363;28;20051;-74
2022/09/09 06:03:38;;;;;;;16.58;11.30;;;14.70;99.90;;;;;;4987671;28;20390;-75
2022/09/09 06:06:06;;;;;;;12.40;10.65;;;14.80;99.90;;;;;;4991475;28;20050;-73
2022/09/09 06:08:33;;;;;;;14.43;10.88;;;14.70;99.90;;;;;;4987951;28;20050;-73
2022/09/09 06:11:10;;;;;;;12.68;9.57;;;14.70;99.90;;;;;;4988323;28;20054;-74
2022/09/09 06:13:39;;;;;;;14.98;9.73;;;14.80;99.90;;;;;;4988901;28;20053;-74
2022/09/09 06:16:07;;;;;;;10.95;9.75;;;14.80;99.90;;;;;;4987991;28;20049;-74
2022/09/09 06:18:33;;;;;;;12.98;9.85;;;14.80;99.90;;;;;;4989957;28;20729;-75
2022/09/09 06:21:01;;;;;;;12.63;9.95;;;14.90;99.90;;;;;;4990654;28;20046;-74
2022/09/09 06:23:28;;;;;;;14.35;9.70;;;14.90;99.90;;;;;;4984256;28;20074;-74
2022/09/09 06:26:05;;;;;;;13.85;9.45;;;14.90;99.90;;;;;;4987645;28;20034;-74
2022/09/09 06:28:34;;;;;;;11.55;9.07;;;15.00;99.90;;;;;;4990796;28;20030;-74
2022/09/09 06:31:05;;;;;;;14.60;9.38;;;15.00;99.90;;;;;;4990012;28;20046;-74
2022/09/09 06:33:34;;;;;;;13.75;9.07;;;15.00;99.90;;;;;;4982317;28;20027;-75
2022/09/09 06:36:01;;;;;;;11.95;9.48;;;15.00;99.90;;;;;;4983590;28;20038;-74
2022/09/09 06:38:27;;;;;;;16.05;8.98;;;15.10;99.90;;;;;;4988343;28;20063;-74
2022/09/09 06:40:58;;;;;;;11.35;8.50;;;15.10;99.90;;;;;;4973389;28;20731;-74
2022/09/09 06:43:25;;;;;;;11.98;8.50;;;15.10;99.90;;;;;;4986525;28;20057;-74
2022/09/09 06:46:21;;;;;;;13.77;8.55;;;15.10;99.90;;;;;;4968277;28;20050;-73
2022/09/09 06:48:47;;;;;;;9.98;7.70;;;15.10;99.90;;;;;;4972838;28;20055;-74
2022/09/09 06:51:19;;;;;;;12.98;7.85;;;15.10;99.90;;;;;;4990239;28;20049;-74
2022/09/09 06:53:46;;;;;;;12.88;8.50;;;15.10;99.90;;;;;;4987660;28;20042;-74
2022/09/09 06:56:17;;;;;;;12.43;8.60;;;15.10;99.90;;;;;;4985722;28;20073;-74
2022/09/09 06:58:46;;;;;;;12.85;8.10;;;15.20;99.90;;;;;;4984316;28;20042;-74
2022/09/09 07:01:18;;;;;;;12.02;8.73;;;15.20;99.90;;;;;;4983861;28;20136;-74
2022/09/09 07:03:50;;;;;;;9.68;8.27;;;15.30;99.90;;;;;;4988006;28;20126;-74
2022/09/09 07:06:25;;;;;;;10.65;8.10;;;15.30;99.90;;;;;;4990135;28;20056;-74
2022/09/09 07:08:52;;;;;;;14.05;8.00;;;15.40;99.90;;;;;;4986270;28;20136;-74
2022/09/09 07:11:20;;;;;;;11.18;7.60;;;15.50;99.90;;;;;;4988401;28;20044;-74
2022/09/09 07:13:47;;;;;;;11.18;8.40;;;15.50;99.90;;;;;;4986814;28;20042;-74
2022/09/09 07:16:15;;;;;;;8.85;7.32;;;15.60;99.90;;;;;;4990815;28;20038;-74
2022/09/09 07:18:41;;;;;;;8.73;7.43;;;15.60;99.90;;;;;;4988756;28;20038;-74
2022/09/09 07:21:09;;;;;;;11.38;7.30;;;15.70;99.90;;;;;;4989284;28;20056;-74
2022/09/09 07:23:38;;;;;;;13.70;7.85;;;15.70;99.90;;;;;;4989829;28;20049;-74
2022/09/09 07:26:12;;;;;;;10.13;6.82;;;15.70;99.90;;;;;;4984372;28;20058;-74
2022/09/09 07:28:38;;;;;;;11.85;6.85;;;15.90;99.90;;;;;;4983490;28;20042;-74
2022/09/09 07:31:05;;;;;;;12.20;7.10;;;16.00;99.90;;;;;;4985281;28;20475;-73
2022/09/09 07:33:33;;;;;;;11.63;6.30;;;16.00;99.90;;;;;;4987314;28;20042;-73
2022/09/09 07:36:04;;;;;;;7.20;6.38;;;16.20;99.90;;;;;;4989871;28;20066;-73
2022/09/09 07:38:30;;;;;;;10.20;6.88;;;16.20;99.90;;;;;;4986654;28;20042;-73
2022/09/09 07:41:05;;;;;;;9.05;6.00;;;16.30;99.90;;;;;;4988906;28;20146;-74
2022/09/09 07:43:31;;;;;;;11.25;6.07;;;16.40;99.90;;;;;;4984637;28;20046;-74
2022/09/09 07:46:03;;;;;;;8.75;6.22;;;16.40;99.90;;;;;;4983579;28;20039;-73
2022/09/09 07:48:29;;;;;;;;;;;16.50;99.90;;;;;;4989328;28;20041;-74
2022/09/09 07:51:26;;;;;;;12.20;5.70;;;16.70;99.90;;;;;;4988885;28;19922;-74
2022/09/09 07:53:57;;;;;;;9.68;6.05;;;16.70;99.90;;;;;;4976936;28;20077;-74
2022/09/09 07:56:24;;;;;;;10.75;6.20;;;16.80;99.90;;;;;;4984746;28;20050;-74
2022/09/09 07:58:52;;;;;;;9.35;6.15;;;16.70;99.90;;;;;;4988020;28;20068;-74
2022/09/09 08:01:40;;;;;;;9.57;6.57;;;16.80;99.90;;;;;;4990794;28;20042;-74
2022/09/09 08:04:08;;;;;;;8.90;5.97;;;16.90;99.90;;;;;;4989199;28;20135;-74
2022/09/09 08:06:43;;;;;;;11.25;6.18;;;17.00;99.90;;;;;;4989588;28;20101;-75
2022/09/09 08:09:10;;;;;;;11.57;6.18;;;17.00;99.90;;;;;;4986696;28;20134;-75
2022/09/09 08:11:36;;;;;;;9.85;5.60;;;17.00;99.90;;;;;;4986555;28;20042;-75
2022/09/09 08:14:03;;;;;;;13.90;6.35;;;17.00;99.90;;;;;;4987418;28;20042;-74
2022/09/09 08:16:36;;;;;;;12.75;6.07;;;17.00;99.90;;;;;;4983754;28;20490;-74
2022/09/09 08:19:02;;;;;;;13.05;6.70;;;17.00;99.90;;;;;;4971753;28;20093;-74
2022/09/09 08:21:31;;;;;;;10.10;6.07;;;17.00;99.90;;;;;;4988896;28;20058;-74
2022/09/09 08:23:58;;;;;;;10.73;6.07;;;17.10;99.90;;;;;;4988442;28;20050;-74
2022/09/09 08:26:30;;;;;;;13.43;6.38;;;17.10;99.90;;;;;;4989191;28;20054;-75
2022/09/09 08:28:57;;;;;;;10.03;6.40;;;17.20;99.90;;;;;;4985896;28;20081;-75
2022/09/09 08:31:24;;;;;;;11.23;5.93;;;17.30;99.90;;;;;;4989685;28;20046;-74
2022/09/09 08:33:50;;;;;;;11.48;6.38;;;17.30;99.90;;;;;;4987689;28;20105;-75
2022/09/09 08:36:21;;;;;;;10.48;6.05;;;17.30;99.90;;;;;;4988253;28;20046;-75
2022/09/09 08:38:54;;;;;;;10.03;6.03;;;17.30;99.90;;;;;;5001038;28;20051;-74
2022/09/09 08:41:39;;;;;;;11.25;6.03;;;17.40;99.90;;;;;;4988949;28;20061;-74
2022/09/09 08:44:27;;;;;;;11.73;5.75;;;17.50;99.90;;;;;;4984173;28;20111;-74
2022/09/09 08:47:19;;;;;;;9.50;4.70;;;17.70;99.90;;;;;;4980295;28;20046;-74
2022/09/09 08:50:12;;;;;;;11.02;4.60;;;17.80;99.90;;;;;;4990593;28;20045;-74
2022/09/09 08:52:59;;;;;;;11.25;4.03;;;17.90;99.90;;;;;;4981893;28;20521;-74
2022/09/09 08:55:35;;;;;;;10.32;3.88;;;17.90;99.90;;;;;;4988879;28;20100;-74
2022/09/09 08:58:24;;;;;;;13.38;4.30;;;17.90;99.90;;;;;;4988481;28;20038;-74
2022/09/09 09:01:12;;;;;;;6.93;3.35;;;18.00;99.90;;;;;;4988098;28;20469;-74
2022/09/09 09:03:59;;;;;;;13.10;3.25;;;18.20;99.90;;;;;;4978321;28;20031;-74
2022/09/09 09:06:30;;;;;;;13.35;4.03;;;18.20;99.90;;;;;;4988672;28;20074;-74
2022/09/09 09:09:27;;;;;;;10.37;3.47;;;18.30;99.90;;;;;;4975357;28;20042;-74
2022/09/09 09:12:00;;;;;;;11.15;3.50;;;18.30;99.90;;;;;;4970037;28;20038;-74
2022/09/09 09:14:30;;;;;;;10.50;3.15;;;18.30;99.90;;;;;;4988183;28;20126;-74
2022/09/09 09:17:12;;;;;;;14.40;3.40;;;18.10;99.90;;;;;;4991085;28;20038;-74
2022/09/09 09:19:40;;;;;;;11.77;3.50;;;18.10;99.90;;;;;;4990207;28;20125;-73
2022/09/09 09:22:41;;;;;;;8.55;3.63;;;18.10;99.90;;;;;;4991596;28;20042;-73
2022/09/09 09:25:20;;;;;;;10.23;3.53;;;18.10;99.90;;;;;;4988567;28;20097;-74
2022/09/09 09:28:19;;;;;;;7.70;3.08;;;18.20;99.90;;;;;;4992437;28;20040;-74
2022/09/09 09:30:59;;;;;;;9.07;2.80;;;18.30;99.90;;;;;;4983214;28;20054;-75
2022/09/09 09:33:55;;;;;;;10.23;3.38;;;18.50;99.90;;;;;;4981520;28;20112;-74
2022/09/09 09:36:25;;;;;;;11.70;3.60;;;18.60;99.90;;;;;;4978900;28;20038;-73
2022/09/09 09:38:56;;;;;;;10.35;3.22;;;18.80;99.90;;;;;;4999919;28;20042;-74
2022/09/09 09:41:35;;;;;;;13.63;3.03;;;18.90;99.90;;;;;;4989990;28;20051;-73
2022/09/09 09:44:02;;;;;;;10.27;3.00;;;19.00;99.90;;;;;;4996150;28;20034;-72
2022/09/09 09:46:28;;;;;;;12.45;2.45;;;18.90;99.90;;;;;;4991356;28;20074;-71
2022/09/09 09:49:05;;;;;;;9.85;2.80;;;18.90;99.90;;;;;;4993184;28;20077;-72
2022/09/09 09:51:32;;;;;;;9.65;2.47;;;19.00;99.90;;;;;;4992312;28;20140;-71
2022/09/09 09:54:13;;;;;;;11.68;2.50;;;19.10;99.90;;;;;;4986566;28;20038;-72
2022/09/09 09:56:40;;;;;;;8.43;2.70;;;19.10;99.90;;;;;;5008723;28;20145;-72
2022/09/09 09:59:12;;;;;;;9.85;2.60;;;19.00;99.90;;;;;;4989238;28;20454;-72
2022/09/09 10:01:38;;;;;;;9.55;3.10;;;19.00;99.90;;;;;;4991150;28;20038;-71
2022/09/09 10:04:23;;;;;;;7.75;2.30;;;18.80;99.90;;;;;;4989819;28;20565;-72
2022/09/09 10:06:50;;;;;;;11.05;2.42;;;18.70;99.90;;;;;;4986823;28;20110;-72
2022/09/09 10:09:33;;;;;;;8.82;2.10;;;18.70;99.90;;;;;;4984345;28;20072;-72
2022/09/09 10:12:37;;;;;;;6.45;1.95;;;18.80;99.90;;;;;;4991181;28;20038;-72
2022/09/09 10:15:21;;;;;;;9.27;2.63;;;18.90;99.90;;;;;;4957943;28;20054;-70
2022/09/09 10:18:37;;;;;;;11.90;2.53;;;19.10;99.90;;;;;;4987270;28;20453;-71
2022/09/09 10:21:41;;;;;;;8.60;2.33;;;19.40;99.90;;;;;;4954750;28;20473;-73
2022/09/09 10:24:32;;;;;;;9.73;2.22;;;19.60;99.90;;;;;;4982917;28;22123;-73
2022/09/09 10:27:20;;;;;;;7.73;2.17;;;19.80;99.90;;;;;;4996800;28;20402;-72
2022/09/09 10:30:37;;;;;;;8.32;2.25;;;20.00;99.90;;;;;;4989197;28;20696;-70
2022/09/09 10:33:35;;;;;;;9.60;2.35;;;20.10;99.90;;;;;;4954422;28;20506;-70
2022/09/09 10:36:13;;;;;;;7.82;2.00;;;19.90;99.90;;;;;;4969578;28;20050;-72
2022/09/09 10:38:41;;;;;;;8.40;2.20;;;20.00;99.90;;;;;;4985234;28;20553;-70
2022/09/09 10:41:18;;;;;;;10.40;2.50;;;20.10;99.90;;;;;;4990793;28;20495;-72
2022/09/09 10:44:25;;;;;;;7.43;2.30;;;20.20;99.90;;;;;;4987471;28;20495;-72
2022/09/09 10:47:13;;;;;;;11.10;2.30;;;20.20;99.90;;;;;;4974520;28;20054;-72
2022/09/09 10:50:22;;;;;;;6.03;1.90;;;20.20;99.90;;;;;;4986681;28;20039;-72
2022/09/09 10:53:02;;;;;;;8.50;1.90;;;20.20;99.90;;;;;;4988093;28;20490;-69
2022/09/09 10:55:37;;;;;;;8.07;2.00;;;20.20;99.90;;;;;;4989545;28;20749;-73
2022/09/09 10:58:07;;;;;;;7.03;1.80;;;20.10;99.90;;;;;;4986028;28;20039;-73
2022/09/09 11:00:47;;;;;;;5.95;1.77;;;19.90;99.90;;;;;;4982290;28;20945;-73
2022/09/09 11:03:22;;;;;;;13.35;2.25;;;19.80;99.90;;;;;;4983299;28;20505;-73
2022/09/09 11:05:56;;;;;;;7.43;2.00;;;19.60;99.90;;;;;;4990326;28;20487;-73
2022/09/09 11:08:30;;;;;;;8.98;2.20;;;19.70;99.90;;;;;;4987145;28;20509;-73
2022/09/09 11:11:04;;;;;;;7.28;2.10;;;19.90;99.90;;;;;;4975849;28;20066;-73
2022/09/09 11:13:51;;;;;;;10.48;2.15;;;20.00;99.90;;;;;;4983034;28;20038;-73
2022/09/09 11:16:41;;;;;;;7.55;2.13;;;20.00;99.90;;;;;;4986488;28;20386;-73
2022/09/09 11:19:17;;;;;;;11.55;2.20;;;20.10;99.90;;;;;;4992682;28;20034;-72
2022/09/09 11:21:49;;;;;;;6.93;1.90;;;20.10;99.90;;;;;;4987106;28;20066;-73
2022/09/09 11:24:32;;;;;;;10.27;2.38;;;20.00;99.90;;;;;;4989948;28;20046;-73
2022/09/09 11:27:09;;;;;;;9.52;1.80;;;19.90;99.90;;;;;;4985127;28;20073;-73
2022/09/09 11:30:02;;;;;;;7.13;1.80;;;19.70;99.90;;;;;;4981851;28;20073;-72
2022/09/09 11:32:57;;;;;;;8.85;2.13;;;19.50;99.90;;;;;;4984204;28;20050;-73
2022/09/09 11:35:34;;;;;;;8.70;2.10;;;19.40;99.90;;;;;;4984924;28;20511;-73
2022/09/09 11:38:18;;;;;;;6.25;1.77;;;19.30;99.90;;;;;;4991671;28;20042;-73
2022/09/09 11:40:44;;;;;;;10.98;2.42;;;19.20;99.90;;;;;;4989555;28;20066;-73
2022/09/09 11:43:25;;;;;;;9.40;2.03;;;19.20;99.90;;;;;;4990217;28;20034;-72
2022/09/09 11:45:57;;;;;;;8.98;2.10;;;19.30;99.90;;;;;;4987643;28;20039;-73
2022/09/09 11:48:36;;;;;;;10.27;2.20;;;19.40;99.90;;;;;;4990475;28;20060;-73
2022/09/09 11:51:07;;;;;;;11.45;2.00;;;19.60;99.90;;;;;;4986883;28;20306;-72
2022/09/09 11:53:34;;;;;;;9.75;2.00;;;19.80;99.90;;;;;;4987283;28;20045;-73
2022/09/09 11:56:01;;;;;;;7.30;1.88;;;20.00;99.90;;;;;;4990582;28;20072;-72
2022/09/09 11:58:32;;;;;;;12.88;2.10;;;20.20;99.90;;;;;;4991862;28;20038;-73
2022/09/09 12:00:58;;;;;;;9.07;2.45;;;20.50;99.90;;;;;;4989582;28;20121;-73
2022/09/09 12:03:46;;;;;;;8.30;2.03;;;20.70;99.90;;;;;;4986525;28;20039;-73
2022/09/09 12:06:19;;;;;;;5.90;1.70;;;20.90;99.90;;;;;;4979930;28;20126;-73
2022/09/09 12:08:50;;;;;;;6.15;1.80;;;21.00;99.90;;;;;;4990571;28;20037;-73
2022/09/09 12:11:28;;;;;;;5.25;1.73;;;20.90;99.90;;;;;;4986804;28;20043;-72
2022/09/09 12:14:00;;;;;;;7.78;1.88;;;20.80;99.90;;;;;;4991901;28;20049;-73
2022/09/09 12:16:38;;;;;;;;;;;20.60;99.90;;;;;;4986568;28;20034;-72
2022/09/09 12:19:18;;;;;;;7.30;1.85;;;20.50;99.90;;;;;;4986520;28;19926;-73
2022/09/09 12:21:58;;;;;;;4.72;1.50;;;20.30;99.90;;;;;;4984371;28;20133;-73
2022/09/09 12:24:36;;;;;;;9.55;1.98;;;20.30;99.90;;;;;;4990212;28;20047;-73
2022/09/09 12:27:31;;;;;;;7.22;1.90;;;20.40;99.90;;;;;;4986633;28;20031;-73
2022/09/09 12:30:03;;;;;;;10.95;1.92;;;20.50;99.90;;;;;;4974925;28;20049;-73
2022/09/09 12:32:29;;;;;;;6.47;1.67;;;20.60;99.90;;;;;;4987822;28;20050;-73
2022/09/09 12:35:01;;;;;;;6.70;1.90;;;20.70;99.90;;;;;;4982942;28;20050;-72
2022/09/09 12:37:33;;;;;;;6.05;1.70;;;20.80;99.90;;;;;;4990059;28;20070;-72
2022/09/09 12:40:01;;;;;;;6.70;1.30;;;20.90;99.90;;;;;;4991509;28;20494;-72
2022/09/09 12:42:27;;;;;;;5.32;1.40;;;20.80;99.90;;;;;;4989040;28;20312;-73
2022/09/09 12:44:59;;;;;;;9.40;1.88;;;20.80;99.90;;;;;;4978677;28;20038;-73
2022/09/09 12:47:40;;;;;;;8.25;1.98;;;20.60;99.90;;;;;;4977946;28;20045;-73
2022/09/09 12:50:17;;;;;;;6.77;1.50;;;20.50;99.90;;;;;;4994915;28;20054;-73
2022/09/09 12:52:43;;;;;;;9.60;2.30;;;20.40;99.90;;;;;;4986565;28;20399;-74
2022/09/09 12:55:18;;;;;;;10.20;1.92;;;20.60;99.90;;;;;;4990459;28;20046;-73
2022/09/09 12:57:44;;;;;;;6.50;1.70;;;21.10;99.90;;;;;;4993229;28;20092;-73
2022/09/09 13:00:17;;;;;;;4.63;1.40;;;21.60;99.90;;;;;;4982333;28;20050;-73
2022/09/09 13:02:54;;;;;;;7.55;1.65;;;22.00;99.90;;;;;;4989480;28;20042;-73
2022/09/09 13:05:33;;;;;;;6.47;1.40;;;22.10;99.90;;;;;;5006582;28;20046;-74
2022/09/09 13:08:10;;;;;;;5.15;1.65;;;22.00;99.90;;;;;;4988214;28;20119;-73
2022/09/09 13:10:46;;;;;;;4.35;1.40;;;22.10;99.90;;;;;;4991781;28;20133;-73
2022/09/09 13:13:19;;;;;;;6.57;1.45;;;21.90;99.90;;;;;;4992443;28;20058;-73